sensor_id;sensor_type;location;lat;lon;timestamp;P1;durP1;ratioP1;P2;durP2;ratioP2
59876;SDS011;45749;51.140;17.184;2023-08-07T00:00:23;4.18;;;2.22;;
59876;SDS011;45749;51.140;17.184;2023-08-07T00:02:48;2.88;;;2.22;;
59876;SDS011;45749;51.140;17.184;2023-08-07T00:05:14;4.25;;;2.03;;
59876;SDS011;45749;51.140;17.184;2023-08-07T00:07:41;4.15;;;1.92;;
59876;SDS011;45749;51.140;17.184;2023-08-07T00:10:07;3.20;;;1.85;;
59876;SDS011;45749;51.140;17.184;2023-08-07T00:12:32;2.20;;;1.90;;
59876;SDS011;45749;51.140;17.184;2023-08-07T00:14:58;4.00;;;1.92;;
59876;SDS011;45749;51.140;17.184;2023-08-07T00:17:23;2.20;;;1.90;;
59876;SDS011;45749;51.140;17.184;2023-08-07T00:19:48;5.03;;;2.40;;
59876;SDS011;45749;51.140;17.184;2023-08-07T00:22:14;2.63;;;2.10;;
59876;SDS011;45749;51.140;17.184;2023-08-07T00:24:39;3.72;;;2.10;;
59876;SDS011;45749;51.140;17.184;2023-08-07T00:27:05;5.15;;;2.35;;
59876;SDS011;45749;51.140;17.184;2023-08-07T00:29:31;3.30;;;2.03;;
59876;SDS011;45749;51.140;17.184;2023-08-07T00:31:57;2.58;;;2.00;;
59876;SDS011;45749;51.140;17.184;2023-08-07T00:34:23;4.38;;;2.05;;
59876;SDS011;45749;51.140;17.184;2023-08-07T00:36:48;3.30;;;1.98;;
59876;SDS011;45749;51.140;17.184;2023-08-07T00:39:13;1.85;;;1.50;;
59876;SDS011;45749;51.140;17.184;2023-08-07T00:41:38;3.90;;;2.05;;
59876;SDS011;45749;51.140;17.184;2023-08-07T00:44:04;4.63;;;1.88;;
59876;SDS011;45749;51.140;17.184;2023-08-07T00:46:29;3.08;;;1.70;;
59876;SDS011;45749;51.140;17.184;2023-08-07T00:48:55;1.98;;;1.20;;
59876;SDS011;45749;51.140;17.184;2023-08-07T00:51:20;3.45;;;1.63;;
59876;SDS011;45749;51.140;17.184;2023-08-07T00:53:47;3.20;;;1.80;;
59876;SDS011;45749;51.140;17.184;2023-08-07T00:56:13;2.67;;;1.70;;
59876;SDS011;45749;51.140;17.184;2023-08-07T00:58:39;4.05;;;1.58;;
59876;SDS011;45749;51.140;17.184;2023-08-07T01:01:05;2.10;;;1.70;;
59876;SDS011;45749;51.140;17.184;2023-08-07T01:03:31;2.47;;;1.63;;
59876;SDS011;45749;51.140;17.184;2023-08-07T01:05:56;1.80;;;1.23;;
59876;SDS011;45749;51.140;17.184;2023-08-07T01:08:22;1.35;;;1.15;;
59876;SDS011;45749;51.140;17.184;2023-08-07T01:17:00;2.60;;;1.40;;
59876;SDS011;45749;51.140;17.184;2023-08-07T01:19:30;1.88;;;1.25;;
59876;SDS011;45749;51.140;17.184;2023-08-07T01:22:18;1.70;;;1.52;;
59876;SDS011;45749;51.140;17.184;2023-08-07T01:24:43;1.77;;;1.50;;
59876;SDS011;45749;51.140;17.184;2023-08-07T01:32:12;3.65;;;1.52;;
59876;SDS011;45749;51.140;17.184;2023-08-07T01:34:42;1.92;;;1.23;;
59876;SDS011;45749;51.140;17.184;2023-08-07T01:37:09;4.68;;;1.50;;
59876;SDS011;45749;51.140;17.184;2023-08-07T01:39:36;2.30;;;1.60;;
59876;SDS011;45749;51.140;17.184;2023-08-07T01:42:02;2.33;;;1.52;;
59876;SDS011;45749;51.140;17.184;2023-08-07T01:44:29;4.05;;;1.35;;
59876;SDS011;45749;51.140;17.184;2023-08-07T01:46:55;2.05;;;1.52;;
59876;SDS011;45749;51.140;17.184;2023-08-07T01:49:21;2.60;;;1.30;;
59876;SDS011;45749;51.140;17.184;2023-08-07T01:51:46;4.65;;;1.55;;
59876;SDS011;45749;51.140;17.184;2023-08-07T01:54:11;2.20;;;1.13;;
59876;SDS011;45749;51.140;17.184;2023-08-07T01:56:36;2.28;;;2.08;;
59876;SDS011;45749;51.140;17.184;2023-08-07T01:59:02;2.17;;;1.65;;
59876;SDS011;45749;51.140;17.184;2023-08-07T02:01:27;2.70;;;1.85;;
59876;SDS011;45749;51.140;17.184;2023-08-07T02:03:52;3.70;;;1.50;;
59876;SDS011;45749;51.140;17.184;2023-08-07T02:06:18;2.60;;;1.80;;
59876;SDS011;45749;51.140;17.184;2023-08-07T02:08:43;4.30;;;1.40;;
59876;SDS011;45749;51.140;17.184;2023-08-07T02:11:08;2.25;;;1.80;;
59876;SDS011;45749;51.140;17.184;2023-08-07T02:13:33;10.48;;;2.65;;
59876;SDS011;45749;51.140;17.184;2023-08-07T02:15:59;1.80;;;1.50;;
59876;SDS011;45749;51.140;17.184;2023-08-07T02:18:24;2.95;;;1.85;;
59876;SDS011;45749;51.140;17.184;2023-08-07T02:20:49;2.40;;;1.50;;
59876;SDS011;45749;51.140;17.184;2023-08-07T02:23:15;2.22;;;1.90;;
59876;SDS011;45749;51.140;17.184;2023-08-07T02:25:40;2.75;;;1.90;;
59876;SDS011;45749;51.140;17.184;2023-08-07T02:28:05;4.97;;;2.00;;
59876;SDS011;45749;51.140;17.184;2023-08-07T02:30:31;2.67;;;1.80;;
59876;SDS011;45749;51.140;17.184;2023-08-07T02:32:56;2.83;;;1.73;;
59876;SDS011;45749;51.140;17.184;2023-08-07T02:35:21;1.65;;;1.50;;
59876;SDS011;45749;51.140;17.184;2023-08-07T02:37:46;5.10;;;2.00;;
59876;SDS011;45749;51.140;17.184;2023-08-07T02:40:12;4.97;;;2.25;;
59876;SDS011;45749;51.140;17.184;2023-08-07T02:42:40;4.55;;;2.00;;
59876;SDS011;45749;51.140;17.184;2023-08-07T02:45:05;8.00;;;2.35;;
59876;SDS011;45749;51.140;17.184;2023-08-07T02:47:31;4.50;;;1.98;;
59876;SDS011;45749;51.140;17.184;2023-08-07T02:49:56;2.05;;;1.85;;
59876;SDS011;45749;51.140;17.184;2023-08-07T02:52:22;3.10;;;1.83;;
59876;SDS011;45749;51.140;17.184;2023-08-07T02:54:47;4.05;;;1.70;;
59876;SDS011;45749;51.140;17.184;2023-08-07T02:57:12;2.30;;;1.80;;
59876;SDS011;45749;51.140;17.184;2023-08-07T02:59:38;5.82;;;1.90;;
59876;SDS011;45749;51.140;17.184;2023-08-07T03:02:03;3.15;;;1.65;;
59876;SDS011;45749;51.140;17.184;2023-08-07T03:04:29;2.90;;;1.80;;
59876;SDS011;45749;51.140;17.184;2023-08-07T03:06:54;2.53;;;1.73;;
59876;SDS011;45749;51.140;17.184;2023-08-07T03:09:19;2.25;;;1.73;;
59876;SDS011;45749;51.140;17.184;2023-08-07T03:11:44;4.25;;;2.20;;
59876;SDS011;45749;51.140;17.184;2023-08-07T03:14:10;1.95;;;1.48;;
59876;SDS011;45749;51.140;17.184;2023-08-07T03:16:35;2.63;;;1.35;;
59876;SDS011;45749;51.140;17.184;2023-08-07T03:19:01;1.58;;;1.40;;
59876;SDS011;45749;51.140;17.184;2023-08-07T03:21:26;5.60;;;2.10;;
59876;SDS011;45749;51.140;17.184;2023-08-07T03:23:51;2.33;;;1.30;;
59876;SDS011;45749;51.140;17.184;2023-08-07T03:26:17;2.50;;;1.13;;
59876;SDS011;45749;51.140;17.184;2023-08-07T03:28:42;1.70;;;1.40;;
59876;SDS011;45749;51.140;17.184;2023-08-07T03:31:08;3.75;;;1.23;;
59876;SDS011;45749;51.140;17.184;2023-08-07T03:33:33;1.33;;;1.17;;
59876;SDS011;45749;51.140;17.184;2023-08-07T03:35:59;2.22;;;1.73;;
59876;SDS011;45749;51.140;17.184;2023-08-07T03:38:24;2.90;;;1.73;;
59876;SDS011;45749;51.140;17.184;2023-08-07T03:40:50;2.65;;;1.10;;
59876;SDS011;45749;51.140;17.184;2023-08-07T03:43:15;1.83;;;1.17;;
59876;SDS011;45749;51.140;17.184;2023-08-07T03:45:41;2.10;;;1.15;;
59876;SDS011;45749;51.140;17.184;2023-08-07T03:48:06;2.85;;;1.58;;
59876;SDS011;45749;51.140;17.184;2023-08-07T03:50:31;1.83;;;1.40;;
59876;SDS011;45749;51.140;17.184;2023-08-07T03:53:00;1.98;;;1.20;;
59876;SDS011;45749;51.140;17.184;2023-08-07T03:55:26;2.35;;;1.70;;
59876;SDS011;45749;51.140;17.184;2023-08-07T03:57:51;3.05;;;1.60;;
59876;SDS011;45749;51.140;17.184;2023-08-07T04:00:16;2.15;;;1.55;;
59876;SDS011;45749;51.140;17.184;2023-08-07T04:02:42;2.50;;;1.33;;
59876;SDS011;45749;51.140;17.184;2023-08-07T04:05:07;3.17;;;1.90;;
59876;SDS011;45749;51.140;17.184;2023-08-07T04:07:33;2.05;;;1.48;;
59876;SDS011;45749;51.140;17.184;2023-08-07T04:09:58;2.08;;;1.80;;
59876;SDS011;45749;51.140;17.184;2023-08-07T04:12:23;2.22;;;1.25;;
59876;SDS011;45749;51.140;17.184;2023-08-07T04:14:48;2.50;;;1.73;;
59876;SDS011;45749;51.140;17.184;2023-08-07T04:17:14;3.42;;;1.80;;
59876;SDS011;45749;51.140;17.184;2023-08-07T04:19:39;1.77;;;1.67;;
59876;SDS011;45749;51.140;17.184;2023-08-07T04:22:04;3.28;;;1.30;;
59876;SDS011;45749;51.140;17.184;2023-08-07T04:24:30;2.17;;;1.48;;
59876;SDS011;45749;51.140;17.184;2023-08-07T04:26:55;3.30;;;1.52;;
59876;SDS011;45749;51.140;17.184;2023-08-07T04:29:20;2.22;;;1.50;;
59876;SDS011;45749;51.140;17.184;2023-08-07T04:31:46;2.75;;;1.80;;
59876;SDS011;45749;51.140;17.184;2023-08-07T04:34:11;2.45;;;1.48;;
59876;SDS011;45749;51.140;17.184;2023-08-07T04:36:37;4.28;;;1.55;;
59876;SDS011;45749;51.140;17.184;2023-08-07T04:39:03;2.63;;;1.85;;
59876;SDS011;45749;51.140;17.184;2023-08-07T04:41:28;2.72;;;2.08;;
59876;SDS011;45749;51.140;17.184;2023-08-07T04:43:53;2.00;;;1.52;;
59876;SDS011;45749;51.140;17.184;2023-08-07T04:46:18;3.78;;;1.75;;
59876;SDS011;45749;51.140;17.184;2023-08-07T04:48:44;4.35;;;2.10;;
59876;SDS011;45749;51.140;17.184;2023-08-07T04:51:09;3.30;;;1.63;;
59876;SDS011;45749;51.140;17.184;2023-08-07T04:53:35;3.67;;;1.95;;
59876;SDS011;45749;51.140;17.184;2023-08-07T04:56:00;1.67;;;1.58;;
59876;SDS011;45749;51.140;17.184;2023-08-07T04:58:25;3.00;;;1.70;;
59876;SDS011;45749;51.140;17.184;2023-08-07T05:00:57;2.28;;;1.60;;
59876;SDS011;45749;51.140;17.184;2023-08-07T05:03:23;2.47;;;1.80;;
59876;SDS011;45749;51.140;17.184;2023-08-07T05:05:49;3.60;;;1.58;;
59876;SDS011;45749;51.140;17.184;2023-08-07T05:08:14;2.00;;;1.42;;
59876;SDS011;45749;51.140;17.184;2023-08-07T05:10:39;3.42;;;2.33;;
59876;SDS011;45749;51.140;17.184;2023-08-07T05:13:05;4.78;;;2.08;;
59876;SDS011;45749;51.140;17.184;2023-08-07T05:15:30;2.03;;;1.63;;
59876;SDS011;45749;51.140;17.184;2023-08-07T05:17:56;4.63;;;2.00;;
59876;SDS011;45749;51.140;17.184;2023-08-07T05:20:21;2.50;;;1.70;;
59876;SDS011;45749;51.140;17.184;2023-08-07T05:22:47;3.33;;;1.58;;
59876;SDS011;45749;51.140;17.184;2023-08-07T05:25:12;2.88;;;1.63;;
59876;SDS011;45749;51.140;17.184;2023-08-07T05:27:41;1.65;;;1.35;;
59876;SDS011;45749;51.140;17.184;2023-08-07T05:30:07;2.42;;;1.50;;
59876;SDS011;45749;51.140;17.184;2023-08-07T05:32:32;2.60;;;1.50;;
59876;SDS011;45749;51.140;17.184;2023-08-07T05:34:58;4.15;;;1.80;;
59876;SDS011;45749;51.140;17.184;2023-08-07T05:37:23;3.40;;;1.55;;
59876;SDS011;45749;51.140;17.184;2023-08-07T05:39:48;2.85;;;1.88;;
59876;SDS011;45749;51.140;17.184;2023-08-07T05:42:14;3.90;;;1.85;;
59876;SDS011;45749;51.140;17.184;2023-08-07T05:44:39;1.73;;;1.42;;
59876;SDS011;45749;51.140;17.184;2023-08-07T05:47:04;1.98;;;1.23;;
59876;SDS011;45749;51.140;17.184;2023-08-07T05:49:30;2.05;;;1.23;;
59876;SDS011;45749;51.140;17.184;2023-08-07T05:51:56;3.40;;;1.70;;
59876;SDS011;45749;51.140;17.184;2023-08-07T05:54:21;2.05;;;1.50;;
59876;SDS011;45749;51.140;17.184;2023-08-07T05:56:46;3.15;;;1.52;;
59876;SDS011;45749;51.140;17.184;2023-08-07T05:59:12;1.77;;;1.63;;
59876;SDS011;45749;51.140;17.184;2023-08-07T06:01:37;2.63;;;1.75;;
59876;SDS011;45749;51.140;17.184;2023-08-07T06:04:02;2.22;;;1.55;;
59876;SDS011;45749;51.140;17.184;2023-08-07T06:06:28;1.98;;;1.42;;
59876;SDS011;45749;51.140;17.184;2023-08-07T06:08:54;2.30;;;1.48;;
59876;SDS011;45749;51.140;17.184;2023-08-07T06:11:19;3.42;;;1.60;;
59876;SDS011;45749;51.140;17.184;2023-08-07T06:13:45;1.30;;;1.20;;
59876;SDS011;45749;51.140;17.184;2023-08-07T06:16:10;2.38;;;1.73;;
59876;SDS011;45749;51.140;17.184;2023-08-07T06:18:36;2.17;;;1.50;;
59876;SDS011;45749;51.140;17.184;2023-08-07T06:21:02;3.00;;;1.80;;
59876;SDS011;45749;51.140;17.184;2023-08-07T06:23:29;1.50;;;1.40;;
59876;SDS011;45749;51.140;17.184;2023-08-07T06:25:54;1.60;;;1.40;;
59876;SDS011;45749;51.140;17.184;2023-08-07T06:28:22;6.82;;;2.13;;
59876;SDS011;45749;51.140;17.184;2023-08-07T06:30:47;2.63;;;2.10;;
59876;SDS011;45749;51.140;17.184;2023-08-07T06:33:12;3.47;;;1.77;;
59876;SDS011;45749;51.140;17.184;2023-08-07T06:35:38;1.65;;;1.38;;
59876;SDS011;45749;51.140;17.184;2023-08-07T06:38:04;2.65;;;1.20;;
59876;SDS011;45749;51.140;17.184;2023-08-07T06:40:30;3.08;;;1.60;;
59876;SDS011;45749;51.140;17.184;2023-08-07T06:42:55;1.95;;;1.50;;
59876;SDS011;45749;51.140;17.184;2023-08-07T06:45:21;2.40;;;1.48;;
59876;SDS011;45749;51.140;17.184;2023-08-07T06:47:46;3.17;;;2.00;;
59876;SDS011;45749;51.140;17.184;2023-08-07T06:50:12;1.60;;;1.35;;
59876;SDS011;45749;51.140;17.184;2023-08-07T06:52:38;4.05;;;1.83;;
59876;SDS011;45749;51.140;17.184;2023-08-07T06:55:03;5.25;;;1.88;;
59876;SDS011;45749;51.140;17.184;2023-08-07T06:57:29;3.08;;;1.58;;
59876;SDS011;45749;51.140;17.184;2023-08-07T06:59:54;3.13;;;2.00;;
59876;SDS011;45749;51.140;17.184;2023-08-07T07:02:20;2.22;;;1.40;;
59876;SDS011;45749;51.140;17.184;2023-08-07T07:04:45;2.65;;;1.90;;
59876;SDS011;45749;51.140;17.184;2023-08-07T07:07:10;3.47;;;1.45;;
59876;SDS011;45749;51.140;17.184;2023-08-07T07:09:35;3.22;;;1.60;;
59876;SDS011;45749;51.140;17.184;2023-08-07T07:12:01;4.55;;;2.85;;
59876;SDS011;45749;51.140;17.184;2023-08-07T07:14:26;2.03;;;1.55;;
59876;SDS011;45749;51.140;17.184;2023-08-07T07:16:51;2.25;;;1.52;;
59876;SDS011;45749;51.140;17.184;2023-08-07T07:19:17;2.85;;;1.63;;
59876;SDS011;45749;51.140;17.184;2023-08-07T07:21:43;3.50;;;1.77;;
59876;SDS011;45749;51.140;17.184;2023-08-07T07:24:09;2.00;;;1.70;;
59876;SDS011;45749;51.140;17.184;2023-08-07T07:26:34;2.33;;;1.83;;
59876;SDS011;45749;51.140;17.184;2023-08-07T07:28:59;3.42;;;1.58;;
59876;SDS011;45749;51.140;17.184;2023-08-07T07:31:25;3.92;;;1.63;;
59876;SDS011;45749;51.140;17.184;2023-08-07T07:33:50;1.90;;;1.67;;
59876;SDS011;45749;51.140;17.184;2023-08-07T07:36:16;4.30;;;2.08;;
59876;SDS011;45749;51.140;17.184;2023-08-07T07:38:42;2.67;;;1.80;;
59876;SDS011;45749;51.140;17.184;2023-08-07T07:41:08;2.30;;;1.63;;
59876;SDS011;45749;51.140;17.184;2023-08-07T07:43:36;2.17;;;1.98;;
59876;SDS011;45749;51.140;17.184;2023-08-07T07:46:01;2.65;;;1.63;;
59876;SDS011;45749;51.140;17.184;2023-08-07T07:48:27;2.95;;;2.00;;
59876;SDS011;45749;51.140;17.184;2023-08-07T07:50:57;3.00;;;2.00;;
59876;SDS011;45749;51.140;17.184;2023-08-07T07:53:26;3.00;;;1.45;;
59876;SDS011;45749;51.140;17.184;2023-08-07T07:55:52;4.10;;;2.20;;
59876;SDS011;45749;51.140;17.184;2023-08-07T07:58:17;2.63;;;1.65;;
59876;SDS011;45749;51.140;17.184;2023-08-07T08:00:42;2.05;;;1.48;;
59876;SDS011;45749;51.140;17.184;2023-08-07T08:03:08;1.73;;;1.20;;
59876;SDS011;45749;51.140;17.184;2023-08-07T08:05:33;2.15;;;1.73;;
59876;SDS011;45749;51.140;17.184;2023-08-07T08:07:59;2.53;;;1.42;;
59876;SDS011;45749;51.140;17.184;2023-08-07T08:10:26;3.13;;;1.55;;
59876;SDS011;45749;51.140;17.184;2023-08-07T08:12:51;3.40;;;1.50;;
59876;SDS011;45749;51.140;17.184;2023-08-07T08:15:17;2.80;;;2.25;;
59876;SDS011;45749;51.140;17.184;2023-08-07T08:17:42;1.90;;;1.20;;
59876;SDS011;45749;51.140;17.184;2023-08-07T08:20:07;2.25;;;1.52;;
59876;SDS011;45749;51.140;17.184;2023-08-07T08:22:33;3.40;;;1.60;;
59876;SDS011;45749;51.140;17.184;2023-08-07T08:24:59;2.75;;;1.50;;
59876;SDS011;45749;51.140;17.184;2023-08-07T08:27:24;1.92;;;1.40;;
59876;SDS011;45749;51.140;17.184;2023-08-07T08:29:50;3.65;;;1.80;;
59876;SDS011;45749;51.140;17.184;2023-08-07T08:32:15;2.80;;;1.63;;
59876;SDS011;45749;51.140;17.184;2023-08-07T08:34:40;4.13;;;2.00;;
59876;SDS011;45749;51.140;17.184;2023-08-07T08:37:06;2.85;;;1.98;;
59876;SDS011;45749;51.140;17.184;2023-08-07T08:39:31;4.65;;;2.05;;
59876;SDS011;45749;51.140;17.184;2023-08-07T08:41:56;4.43;;;1.77;;
59876;SDS011;45749;51.140;17.184;2023-08-07T08:44:23;3.63;;;1.88;;
59876;SDS011;45749;51.140;17.184;2023-08-07T08:46:49;7.00;;;2.30;;
59876;SDS011;45749;51.140;17.184;2023-08-07T08:49:19;7.85;;;3.42;;
59876;SDS011;45749;51.140;17.184;2023-08-07T08:51:52;5.28;;;2.28;;
59876;SDS011;45749;51.140;17.184;2023-08-07T08:54:18;3.83;;;2.17;;
59876;SDS011;45749;51.140;17.184;2023-08-07T08:56:44;2.85;;;1.85;;
59876;SDS011;45749;51.140;17.184;2023-08-07T08:59:10;2.92;;;1.98;;
59876;SDS011;45749;51.140;17.184;2023-08-07T09:01:35;3.25;;;2.00;;
59876;SDS011;45749;51.140;17.184;2023-08-07T09:04:01;2.22;;;1.75;;
59876;SDS011;45749;51.140;17.184;2023-08-07T09:06:29;2.72;;;1.95;;
59876;SDS011;45749;51.140;17.184;2023-08-07T09:08:56;2.17;;;1.85;;
59876;SDS011;45749;51.140;17.184;2023-08-07T09:11:23;2.50;;;1.80;;
59876;SDS011;45749;51.140;17.184;2023-08-07T09:13:49;3.40;;;2.08;;
59876;SDS011;45749;51.140;17.184;2023-08-07T09:16:14;2.30;;;1.75;;
59876;SDS011;45749;51.140;17.184;2023-08-07T09:18:41;3.40;;;1.90;;
59876;SDS011;45749;51.140;17.184;2023-08-07T09:21:07;5.35;;;2.17;;
59876;SDS011;45749;51.140;17.184;2023-08-07T09:23:32;3.40;;;1.67;;
59876;SDS011;45749;51.140;17.184;2023-08-07T09:26:04;4.18;;;2.28;;
59876;SDS011;45749;51.140;17.184;2023-08-07T09:28:31;4.05;;;1.95;;
59876;SDS011;45749;51.140;17.184;2023-08-07T09:30:58;2.85;;;1.95;;
59876;SDS011;45749;51.140;17.184;2023-08-07T09:33:27;4.80;;;1.83;;
59876;SDS011;45749;51.140;17.184;2023-08-07T09:36:02;2.85;;;2.17;;
59876;SDS011;45749;51.140;17.184;2023-08-07T09:38:31;3.70;;;1.70;;
59876;SDS011;45749;51.140;17.184;2023-08-07T09:40:58;3.83;;;2.13;;
59876;SDS011;45749;51.140;17.184;2023-08-07T09:43:24;3.08;;;2.20;;
59876;SDS011;45749;51.140;17.184;2023-08-07T09:45:50;3.30;;;2.00;;
59876;SDS011;45749;51.140;17.184;2023-08-07T09:48:22;3.97;;;2.25;;
59876;SDS011;45749;51.140;17.184;2023-08-07T09:50:48;3.28;;;1.92;;
59876;SDS011;45749;51.140;17.184;2023-08-07T09:53:13;4.25;;;2.03;;
59876;SDS011;45749;51.140;17.184;2023-08-07T09:55:39;3.75;;;1.70;;
59876;SDS011;45749;51.140;17.184;2023-08-07T09:58:05;1.70;;;1.38;;
59876;SDS011;45749;51.140;17.184;2023-08-07T10:00:36;2.35;;;1.63;;
59876;SDS011;45749;51.140;17.184;2023-08-07T10:03:01;3.90;;;1.50;;
59876;SDS011;45749;51.140;17.184;2023-08-07T10:05:27;2.08;;;1.88;;
59876;SDS011;45749;51.140;17.184;2023-08-07T10:07:53;3.17;;;1.58;;
59876;SDS011;45749;51.140;17.184;2023-08-07T10:10:20;2.25;;;1.23;;
59876;SDS011;45749;51.140;17.184;2023-08-07T10:12:46;2.85;;;1.90;;
59876;SDS011;45749;51.140;17.184;2023-08-07T10:15:13;1.88;;;1.30;;
59876;SDS011;45749;51.140;17.184;2023-08-07T10:17:39;2.70;;;1.58;;
59876;SDS011;45749;51.140;17.184;2023-08-07T10:20:06;2.97;;;1.42;;
59876;SDS011;45749;51.140;17.184;2023-08-07T10:22:32;1.98;;;1.50;;
59876;SDS011;45749;51.140;17.184;2023-08-07T10:25:02;3.45;;;1.75;;
59876;SDS011;45749;51.140;17.184;2023-08-07T10:27:28;2.42;;;1.50;;
59876;SDS011;45749;51.140;17.184;2023-08-07T10:29:58;3.20;;;1.55;;
59876;SDS011;45749;51.140;17.184;2023-08-07T10:32:26;3.42;;;1.60;;
59876;SDS011;45749;51.140;17.184;2023-08-07T10:34:52;1.73;;;1.20;;
59876;SDS011;45749;51.140;17.184;2023-08-07T10:40:09;1.80;;;1.60;;
59876;SDS011;45749;51.140;17.184;2023-08-07T10:45:21;3.45;;;1.15;;
59876;SDS011;45749;51.140;17.184;2023-08-07T10:50:33;2.67;;;1.23;;
59876;SDS011;45749;51.140;17.184;2023-08-07T10:53:03;2.38;;;1.10;;
59876;SDS011;45749;51.140;17.184;2023-08-07T10:55:44;2.20;;;1.20;;
59876;SDS011;45749;51.140;17.184;2023-08-07T10:58:29;3.72;;;1.40;;
59876;SDS011;45749;51.140;17.184;2023-08-07T11:01:18;1.40;;;0.85;;
59876;SDS011;45749;51.140;17.184;2023-08-07T11:03:45;1.33;;;1.10;;
59876;SDS011;45749;51.140;17.184;2023-08-07T11:06:13;2.85;;;1.30;;
59876;SDS011;45749;51.140;17.184;2023-08-07T11:08:38;6.28;;;1.20;;
59876;SDS011;45749;51.140;17.184;2023-08-07T11:11:06;1.10;;;1.00;;
59876;SDS011;45749;51.140;17.184;2023-08-07T11:13:35;3.30;;;1.15;;
59876;SDS011;45749;51.140;17.184;2023-08-07T11:16:01;1.98;;;1.40;;
59876;SDS011;45749;51.140;17.184;2023-08-07T11:18:27;1.23;;;1.13;;
59876;SDS011;45749;51.140;17.184;2023-08-07T11:20:53;1.50;;;0.90;;
59876;SDS011;45749;51.140;17.184;2023-08-07T11:23:24;1.73;;;1.63;;
59876;SDS011;45749;51.140;17.184;2023-08-07T11:25:52;1.98;;;0.95;;
59876;SDS011;45749;51.140;17.184;2023-08-07T11:28:19;1.40;;;0.90;;
59876;SDS011;45749;51.140;17.184;2023-08-07T11:30:46;1.25;;;1.00;;
59876;SDS011;45749;51.140;17.184;2023-08-07T11:33:13;2.55;;;1.60;;
59876;SDS011;45749;51.140;17.184;2023-08-07T11:35:42;3.42;;;1.45;;
59876;SDS011;45749;51.140;17.184;2023-08-07T11:38:07;1.42;;;0.95;;
59876;SDS011;45749;51.140;17.184;2023-08-07T11:40:33;3.60;;;1.30;;
59876;SDS011;45749;51.140;17.184;2023-08-07T11:42:59;3.03;;;1.50;;
59876;SDS011;45749;51.140;17.184;2023-08-07T11:45:24;2.38;;;1.25;;
59876;SDS011;45749;51.140;17.184;2023-08-07T11:47:49;2.50;;;1.20;;
59876;SDS011;45749;51.140;17.184;2023-08-07T11:50:15;2.47;;;1.30;;
59876;SDS011;45749;51.140;17.184;2023-08-07T11:52:40;3.47;;;1.98;;
59876;SDS011;45749;51.140;17.184;2023-08-07T11:55:06;3.15;;;1.42;;
59876;SDS011;45749;51.140;17.184;2023-08-07T11:57:33;2.08;;;1.20;;
59876;SDS011;45749;51.140;17.184;2023-08-07T11:59:59;1.77;;;1.38;;
59876;SDS011;45749;51.140;17.184;2023-08-07T12:02:24;2.63;;;1.63;;
59876;SDS011;45749;51.140;17.184;2023-08-07T12:04:50;1.48;;;1.33;;
59876;SDS011;45749;51.140;17.184;2023-08-07T12:07:18;2.67;;;1.30;;
59876;SDS011;45749;51.140;17.184;2023-08-07T12:09:48;2.85;;;1.23;;
59876;SDS011;45749;51.140;17.184;2023-08-07T12:12:13;1.88;;;1.30;;
59876;SDS011;45749;51.140;17.184;2023-08-07T12:14:38;4.80;;;1.80;;
59876;SDS011;45749;51.140;17.184;2023-08-07T12:17:04;1.77;;;0.88;;
59876;SDS011;45749;51.140;17.184;2023-08-07T12:19:36;1.33;;;1.02;;
59876;SDS011;45749;51.140;17.184;2023-08-07T12:22:03;1.50;;;1.10;;
59876;SDS011;45749;51.140;17.184;2023-08-07T12:24:31;1.85;;;1.00;;
59876;SDS011;45749;51.140;17.184;2023-08-07T12:26:56;2.13;;;1.40;;
59876;SDS011;45749;51.140;17.184;2023-08-07T12:29:21;1.60;;;1.10;;
59876;SDS011;45749;51.140;17.184;2023-08-07T12:31:48;2.30;;;1.27;;
59876;SDS011;45749;51.140;17.184;2023-08-07T12:34:13;1.27;;;0.90;;
59876;SDS011;45749;51.140;17.184;2023-08-07T12:36:39;1.10;;;0.90;;
59876;SDS011;45749;51.140;17.184;2023-08-07T12:39:04;2.77;;;1.13;;
59876;SDS011;45749;51.140;17.184;2023-08-07T12:41:31;1.13;;;0.80;;
59876;SDS011;45749;51.140;17.184;2023-08-07T12:43:56;1.33;;;0.85;;
59876;SDS011;45749;51.140;17.184;2023-08-07T12:46:22;0.75;;;0.73;;
59876;SDS011;45749;51.140;17.184;2023-08-07T12:48:47;1.10;;;0.82;;
59876;SDS011;45749;51.140;17.184;2023-08-07T12:51:12;3.13;;;1.00;;
59876;SDS011;45749;51.140;17.184;2023-08-07T12:53:37;3.08;;;1.23;;
59876;SDS011;45749;51.140;17.184;2023-08-07T12:56:03;2.65;;;1.20;;
59876;SDS011;45749;51.140;17.184;2023-08-07T12:58:29;3.05;;;1.35;;
59876;SDS011;45749;51.140;17.184;2023-08-07T13:00:55;2.65;;;1.67;;
59876;SDS011;45749;51.140;17.184;2023-08-07T13:03:20;2.85;;;0.82;;
59876;SDS011;45749;51.140;17.184;2023-08-07T13:05:46;1.58;;;0.80;;
59876;SDS011;45749;51.140;17.184;2023-08-07T13:08:11;1.77;;;1.10;;
59876;SDS011;45749;51.140;17.184;2023-08-07T13:10:36;1.70;;;1.20;;
59876;SDS011;45749;51.140;17.184;2023-08-07T13:13:01;3.08;;;1.27;;
59876;SDS011;45749;51.140;17.184;2023-08-07T13:15:29;1.50;;;0.68;;
59876;SDS011;45749;51.140;17.184;2023-08-07T13:17:55;1.90;;;0.85;;
59876;SDS011;45749;51.140;17.184;2023-08-07T13:20:20;2.35;;;1.17;;
59876;SDS011;45749;51.140;17.184;2023-08-07T13:22:45;1.88;;;1.10;;
59876;SDS011;45749;51.140;17.184;2023-08-07T13:25:11;4.40;;;1.45;;
59876;SDS011;45749;51.140;17.184;2023-08-07T13:27:37;1.42;;;1.27;;
59876;SDS011;45749;51.140;17.184;2023-08-07T13:30:04;1.58;;;1.17;;
59876;SDS011;45749;51.140;17.184;2023-08-07T13:32:30;1.70;;;1.17;;
59876;SDS011;45749;51.140;17.184;2023-08-07T13:34:57;3.22;;;1.20;;
59876;SDS011;45749;51.140;17.184;2023-08-07T13:37:22;2.95;;;1.25;;
59876;SDS011;45749;51.140;17.184;2023-08-07T13:39:47;2.42;;;1.50;;
59876;SDS011;45749;51.140;17.184;2023-08-07T13:42:14;2.20;;;1.45;;
59876;SDS011;45749;51.140;17.184;2023-08-07T13:44:40;1.38;;;0.93;;
59876;SDS011;45749;51.140;17.184;2023-08-07T13:47:05;1.37;;;1.00;;
59876;SDS011;45749;51.140;17.184;2023-08-07T13:49:31;2.67;;;0.77;;
59876;SDS011;45749;51.140;17.184;2023-08-07T13:51:57;2.35;;;0.98;;
59876;SDS011;45749;51.140;17.184;2023-08-07T13:54:22;2.15;;;1.10;;
59876;SDS011;45749;51.140;17.184;2023-08-07T13:56:48;1.23;;;0.93;;
59876;SDS011;45749;51.140;17.184;2023-08-07T13:59:13;3.33;;;1.02;;
59876;SDS011;45749;51.140;17.184;2023-08-07T14:01:38;2.03;;;1.58;;
59876;SDS011;45749;51.140;17.184;2023-08-07T14:04:04;1.87;;;1.00;;
59876;SDS011;45749;51.140;17.184;2023-08-07T14:06:30;3.20;;;1.65;;
59876;SDS011;45749;51.140;17.184;2023-08-07T14:08:55;2.78;;;1.10;;
59876;SDS011;45749;51.140;17.184;2023-08-07T14:11:21;2.15;;;1.60;;
59876;SDS011;45749;51.140;17.184;2023-08-07T14:13:49;1.92;;;1.02;;
59876;SDS011;45749;51.140;17.184;2023-08-07T14:16:15;4.22;;;0.93;;
59876;SDS011;45749;51.140;17.184;2023-08-07T14:18:40;2.90;;;1.00;;
59876;SDS011;45749;51.140;17.184;2023-08-07T14:21:05;1.92;;;1.13;;
59876;SDS011;45749;51.140;17.184;2023-08-07T14:23:31;1.60;;;1.00;;
59876;SDS011;45749;51.140;17.184;2023-08-07T14:25:56;1.92;;;0.80;;
59876;SDS011;45749;51.140;17.184;2023-08-07T14:28:22;3.72;;;1.00;;
59876;SDS011;45749;51.140;17.184;2023-08-07T14:30:47;1.70;;;0.95;;
59876;SDS011;45749;51.140;17.184;2023-08-07T14:33:13;2.63;;;0.80;;
59876;SDS011;45749;51.140;17.184;2023-08-07T14:35:38;1.33;;;0.80;;
59876;SDS011;45749;51.140;17.184;2023-08-07T14:38:03;0.75;;;0.60;;
59876;SDS011;45749;51.140;17.184;2023-08-07T14:40:28;1.50;;;1.03;;
59876;SDS011;45749;51.140;17.184;2023-08-07T14:42:54;1.65;;;0.73;;
59876;SDS011;45749;51.140;17.184;2023-08-07T14:45:20;2.78;;;1.30;;